sensor_id;sensor_type;location;lat;lon;timestamp;P1;durP1;ratioP1;P2;durP2;ratioP2
26588;SDS011;14235;48.532;8.722;2022-09-09T00:01:12;2.30;;;1.40;;
26588;SDS011;14235;48.532;8.722;2022-09-09T00:03:54;5.60;;;1.60;;
26588;SDS011;14235;48.532;8.722;2022-09-09T00:06:30;2.00;;;1.60;;
26588;SDS011;14235;48.532;8.722;2022-09-09T00:09:22;4.55;;;1.65;;
26588;SDS011;14235;48.532;8.722;2022-09-09T00:12:04;3.25;;;1.55;;
26588;SDS011;14235;48.532;8.722;2022-09-09T00:15:02;5.38;;;1.95;;
26588;SDS011;14235;48.532;8.722;2022-09-09T00:17:38;1.55;;;1.45;;
26588;SDS011;14235;48.532;8.722;2022-09-09T00:20:13;4.43;;;1.77;;
26588;SDS011;14235;48.532;8.722;2022-09-09T00:22:46;4.20;;;2.08;;
26588;SDS011;14235;48.532;8.722;2022-09-09T00:25:20;2.80;;;2.60;;
26588;SDS011;14235;48.532;8.722;2022-09-09T00:27:51;4.18;;;1.73;;
26588;SDS011;14235;48.532;8.722;2022-09-09T00:30:19;3.67;;;2.13;;
26588;SDS011;14235;48.532;8.722;2022-09-09T00:33:08;3.70;;;2.22;;
26588;SDS011;14235;48.532;8.722;2022-09-09T00:35:40;2.85;;;1.88;;
26588;SDS011;14235;48.532;8.722;2022-09-09T00:38:38;2.72;;;2.00;;
26588;SDS011;14235;48.532;8.722;2022-09-09T00:41:12;2.55;;;2.22;;
26588;SDS011;14235;48.532;8.722;2022-09-09T00:43:39;2.60;;;2.20;;
26588;SDS011;14235;48.532;8.722;2022-09-09T00:49:26;4.78;;;1.92;;
26588;SDS011;14235;48.532;8.722;2022-09-09T00:51:46;2.55;;;2.08;;
26588;SDS011;14235;48.532;8.722;2022-09-09T00:59:52;3.55;;;2.25;;
26588;SDS011;14235;48.532;8.722;2022-09-09T01:02:44;4.57;;;2.60;;
26588;SDS011;14235;48.532;8.722;2022-09-09T01:05:35;3.38;;;2.22;;
26588;SDS011;14235;48.532;8.722;2022-09-09T01:08:27;4.85;;;2.35;;
26588;SDS011;14235;48.532;8.722;2022-09-09T01:10:55;4.35;;;2.05;;
26588;SDS011;14235;48.532;8.722;2022-09-09T01:13:25;2.13;;;1.95;;
26588;SDS011;14235;48.532;8.722;2022-09-09T01:15:55;3.63;;;2.50;;
26588;SDS011;14235;48.532;8.722;2022-09-09T01:18:25;3.22;;;1.90;;
26588;SDS011;14235;48.532;8.722;2022-09-09T01:26:23;3.78;;;2.25;;
26588;SDS011;14235;48.532;8.722;2022-09-09T01:28:53;5.35;;;2.92;;
26588;SDS011;14235;48.532;8.722;2022-09-09T01:31:21;4.00;;;2.30;;
26588;SDS011;14235;48.532;8.722;2022-09-09T01:33:56;4.30;;;2.53;;
26588;SDS011;14235;48.532;8.722;2022-09-09T01:38:54;5.95;;;2.45;;
26588;SDS011;14235;48.532;8.722;2022-09-09T01:41:20;4.07;;;2.25;;
26588;SDS011;14235;48.532;8.722;2022-09-09T01:43:46;2.53;;;2.00;;
26588;SDS011;14235;48.532;8.722;2022-09-09T01:46:12;3.17;;;2.13;;
26588;SDS011;14235;48.532;8.722;2022-09-09T01:48:38;2.25;;;2.05;;
26588;SDS011;14235;48.532;8.722;2022-09-09T01:51:07;3.78;;;2.17;;
26588;SDS011;14235;48.532;8.722;2022-09-09T01:53:35;4.40;;;2.17;;
26588;SDS011;14235;48.532;8.722;2022-09-09T01:56:04;4.15;;;2.42;;
26588;SDS011;14235;48.532;8.722;2022-09-09T02:06:48;6.07;;;2.38;;
26588;SDS011;14235;48.532;8.722;2022-09-09T02:09:19;1.63;;;1.52;;
26588;SDS011;14235;48.532;8.722;2022-09-09T02:11:48;5.10;;;2.00;;
26588;SDS011;14235;48.532;8.722;2022-09-09T02:14:22;4.07;;;2.03;;
26588;SDS011;14235;48.532;8.722;2022-09-09T02:16:56;3.22;;;2.00;;
26588;SDS011;14235;48.532;8.722;2022-09-09T02:19:51;3.17;;;1.92;;
26588;SDS011;14235;48.532;8.722;2022-09-09T02:22:16;8.60;;;2.22;;
26588;SDS011;14235;48.532;8.722;2022-09-09T02:24:45;2.28;;;2.08;;
26588;SDS011;14235;48.532;8.722;2022-09-09T02:27:12;2.67;;;2.13;;
26588;SDS011;14235;48.532;8.722;2022-09-09T02:29:41;3.72;;;1.80;;
26588;SDS011;14235;48.532;8.722;2022-09-09T02:32:12;5.25;;;2.00;;
26588;SDS011;14235;48.532;8.722;2022-09-09T02:34:45;3.15;;;1.80;;
26588;SDS011;14235;48.532;8.722;2022-09-09T02:37:13;5.03;;;1.95;;
26588;SDS011;14235;48.532;8.722;2022-09-09T02:39:43;2.55;;;1.95;;
26588;SDS011;14235;48.532;8.722;2022-09-09T02:42:09;2.47;;;1.88;;
26588;SDS011;14235;48.532;8.722;2022-09-09T02:44:35;2.17;;;1.70;;
26588;SDS011;14235;48.532;8.722;2022-09-09T02:50:05;3.25;;;1.60;;
26588;SDS011;14235;48.532;8.722;2022-09-09T02:55:12;2.63;;;2.15;;
26588;SDS011;14235;48.532;8.722;2022-09-09T02:58:01;1.92;;;1.73;;
26588;SDS011;14235;48.532;8.722;2022-09-09T03:00:31;4.93;;;2.15;;
26588;SDS011;14235;48.532;8.722;2022-09-09T03:02:58;3.80;;;2.03;;
26588;SDS011;14235;48.532;8.722;2022-09-09T03:05:24;3.08;;;1.77;;
26588;SDS011;14235;48.532;8.722;2022-09-09T03:07:50;3.38;;;1.90;;
26588;SDS011;14235;48.532;8.722;2022-09-09T03:10:16;3.05;;;2.08;;
26588;SDS011;14235;48.532;8.722;2022-09-09T03:12:42;2.72;;;1.88;;
26588;SDS011;14235;48.532;8.722;2022-09-09T03:15:08;3.85;;;2.15;;
26588;SDS011;14235;48.532;8.722;2022-09-09T03:17:34;2.28;;;2.08;;
26588;SDS011;14235;48.532;8.722;2022-09-09T03:20:01;2.08;;;1.98;;
26588;SDS011;14235;48.532;8.722;2022-09-09T03:22:28;5.68;;;2.50;;
26588;SDS011;14235;48.532;8.722;2022-09-09T03:24:53;5.75;;;2.25;;
26588;SDS011;14235;48.532;8.722;2022-09-09T03:27:19;2.47;;;2.30;;
26588;SDS011;14235;48.532;8.722;2022-09-09T03:29:45;5.88;;;2.30;;
26588;SDS011;14235;48.532;8.722;2022-09-09T03:32:12;3.28;;;2.60;;
26588;SDS011;14235;48.532;8.722;2022-09-09T03:34:38;5.25;;;2.70;;
26588;SDS011;14235;48.532;8.722;2022-09-09T03:37:06;4.13;;;3.00;;
26588;SDS011;14235;48.532;8.722;2022-09-09T03:39:32;2.83;;;2.50;;
26588;SDS011;14235;48.532;8.722;2022-09-09T03:41:57;5.68;;;2.85;;
26588;SDS011;14235;48.532;8.722;2022-09-09T03:44:23;3.78;;;2.60;;
26588;SDS011;14235;48.532;8.722;2022-09-09T03:46:48;4.47;;;3.33;;
26588;SDS011;14235;48.532;8.722;2022-09-09T03:49:14;7.18;;;3.20;;
26588;SDS011;14235;48.532;8.722;2022-09-09T03:51:40;4.25;;;3.10;;
26588;SDS011;14235;48.532;8.722;2022-09-09T03:54:06;5.00;;;3.00;;
26588;SDS011;14235;48.532;8.722;2022-09-09T03:56:35;4.38;;;3.20;;
26588;SDS011;14235;48.532;8.722;2022-09-09T03:59:01;3.97;;;2.90;;
26588;SDS011;14235;48.532;8.722;2022-09-09T04:01:27;5.35;;;3.08;;
26588;SDS011;14235;48.532;8.722;2022-09-09T04:03:53;4.82;;;3.40;;
26588;SDS011;14235;48.532;8.722;2022-09-09T04:06:23;3.05;;;2.75;;
26588;SDS011;14235;48.532;8.722;2022-09-09T04:08:49;4.50;;;3.17;;
26588;SDS011;14235;48.532;8.722;2022-09-09T04:11:15;4.10;;;2.97;;
26588;SDS011;14235;48.532;8.722;2022-09-09T04:13:41;5.28;;;2.72;;
26588;SDS011;14235;48.532;8.722;2022-09-09T04:16:07;5.25;;;2.70;;
26588;SDS011;14235;48.532;8.722;2022-09-09T04:18:34;6.07;;;3.25;;
26588;SDS011;14235;48.532;8.722;2022-09-09T04:21:00;5.85;;;3.30;;
26588;SDS011;14235;48.532;8.722;2022-09-09T04:23:26;5.57;;;3.15;;
26588;SDS011;14235;48.532;8.722;2022-09-09T04:25:54;5.18;;;3.22;;
26588;SDS011;14235;48.532;8.722;2022-09-09T04:28:21;5.72;;;3.05;;
26588;SDS011;14235;48.532;8.722;2022-09-09T04:30:48;6.20;;;2.90;;
26588;SDS011;14235;48.532;8.722;2022-09-09T04:33:14;5.93;;;3.05;;
26588;SDS011;14235;48.532;8.722;2022-09-09T04:35:58;3.90;;;2.70;;
26588;SDS011;14235;48.532;8.722;2022-09-09T04:38:23;3.28;;;2.95;;
26588;SDS011;14235;48.532;8.722;2022-09-09T04:40:51;4.20;;;2.92;;
26588;SDS011;14235;48.532;8.722;2022-09-09T04:43:18;3.50;;;2.90;;
26588;SDS011;14235;48.532;8.722;2022-09-09T04:45:46;5.22;;;3.17;;
26588;SDS011;14235;48.532;8.722;2022-09-09T04:48:13;3.97;;;2.63;;
26588;SDS011;14235;48.532;8.722;2022-09-09T04:50:39;2.67;;;2.45;;
26588;SDS011;14235;48.532;8.722;2022-09-09T04:53:05;4.55;;;2.65;;
26588;SDS011;14235;48.532;8.722;2022-09-09T04:55:31;2.80;;;2.60;;
26588;SDS011;14235;48.532;8.722;2022-09-09T04:57:58;5.30;;;2.53;;
26588;SDS011;14235;48.532;8.722;2022-09-09T05:00:31;3.20;;;2.20;;
26588;SDS011;14235;48.532;8.722;2022-09-09T05:03:02;5.10;;;2.70;;
26588;SDS011;14235;48.532;8.722;2022-09-09T05:05:29;6.00;;;2.53;;
26588;SDS011;14235;48.532;8.722;2022-09-09T05:07:59;2.65;;;2.45;;
26588;SDS011;14235;48.532;8.722;2022-09-09T05:10:28;4.40;;;2.30;;
26588;SDS011;14235;48.532;8.722;2022-09-09T05:12:53;2.70;;;2.47;;
26588;SDS011;14235;48.532;8.722;2022-09-09T05:15:19;3.08;;;2.47;;
26588;SDS011;14235;48.532;8.722;2022-09-09T05:17:46;4.25;;;2.67;;
26588;SDS011;14235;48.532;8.722;2022-09-09T05:20:11;4.38;;;2.70;;
26588;SDS011;14235;48.532;8.722;2022-09-09T05:22:37;5.18;;;2.10;;
26588;SDS011;14235;48.532;8.722;2022-09-09T05:25:03;3.72;;;2.35;;
26588;SDS011;14235;48.532;8.722;2022-09-09T05:27:29;3.40;;;2.63;;
26588;SDS011;14235;48.532;8.722;2022-09-09T05:29:56;4.50;;;2.75;;
26588;SDS011;14235;48.532;8.722;2022-09-09T05:32:22;3.75;;;2.63;;
26588;SDS011;14235;48.532;8.722;2022-09-09T05:34:48;5.20;;;2.42;;
26588;SDS011;14235;48.532;8.722;2022-09-09T05:37:13;5.07;;;3.05;;
26588;SDS011;14235;48.532;8.722;2022-09-09T05:39:39;3.65;;;2.55;;
26588;SDS011;14235;48.532;8.722;2022-09-09T05:42:04;5.18;;;2.30;;
26588;SDS011;14235;48.532;8.722;2022-09-09T05:44:30;3.67;;;2.90;;
26588;SDS011;14235;48.532;8.722;2022-09-09T05:46:56;4.65;;;2.58;;
26588;SDS011;14235;48.532;8.722;2022-09-09T05:49:23;4.90;;;2.67;;
26588;SDS011;14235;48.532;8.722;2022-09-09T05:51:49;4.75;;;2.42;;
26588;SDS011;14235;48.532;8.722;2022-09-09T05:54:15;6.22;;;2.47;;
26588;SDS011;14235;48.532;8.722;2022-09-09T05:56:41;4.60;;;2.42;;
26588;SDS011;14235;48.532;8.722;2022-09-09T05:59:07;2.42;;;2.17;;
26588;SDS011;14235;48.532;8.722;2022-09-09T06:01:34;2.83;;;2.50;;
26588;SDS011;14235;48.532;8.722;2022-09-09T06:04:01;5.05;;;2.33;;
26588;SDS011;14235;48.532;8.722;2022-09-09T06:06:30;5.80;;;2.50;;
26588;SDS011;14235;48.532;8.722;2022-09-09T06:09:02;2.72;;;2.13;;
26588;SDS011;14235;48.532;8.722;2022-09-09T06:11:30;2.42;;;1.98;;
26588;SDS011;14235;48.532;8.722;2022-09-09T06:13:57;4.30;;;2.60;;
26588;SDS011;14235;48.532;8.722;2022-09-09T06:16:24;5.03;;;2.28;;
26588;SDS011;14235;48.532;8.722;2022-09-09T06:18:51;4.40;;;2.13;;
26588;SDS011;14235;48.532;8.722;2022-09-09T06:21:23;3.42;;;2.50;;
26588;SDS011;14235;48.532;8.722;2022-09-09T06:23:50;3.65;;;2.28;;
26588;SDS011;14235;48.532;8.722;2022-09-09T06:26:20;4.63;;;2.22;;
26588;SDS011;14235;48.532;8.722;2022-09-09T06:28:47;2.88;;;2.13;;
26588;SDS011;14235;48.532;8.722;2022-09-09T06:31:15;2.67;;;2.08;;
26588;SDS011;14235;48.532;8.722;2022-09-09T06:33:43;3.03;;;2.40;;
26588;SDS011;14235;48.532;8.722;2022-09-09T06:36:11;4.43;;;2.20;;
26588;SDS011;14235;48.532;8.722;2022-09-09T06:38:39;4.88;;;2.25;;
26588;SDS011;14235;48.532;8.722;2022-09-09T06:41:05;4.20;;;2.35;;
26588;SDS011;14235;48.532;8.722;2022-09-09T06:43:31;5.97;;;2.28;;
26588;SDS011;14235;48.532;8.722;2022-09-09T06:45:58;3.00;;;1.90;;
26588;SDS011;14235;48.532;8.722;2022-09-09T06:48:44;2.42;;;2.22;;
26588;SDS011;14235;48.532;8.722;2022-09-09T06:53:41;4.95;;;2.30;;
26588;SDS011;14235;48.532;8.722;2022-09-09T06:56:18;5.82;;;2.50;;
26588;SDS011;14235;48.532;8.722;2022-09-09T06:58:49;2.47;;;2.17;;
26588;SDS011;14235;48.532;8.722;2022-09-09T07:01:19;2.60;;;2.38;;
26588;SDS011;14235;48.532;8.722;2022-09-09T07:03:47;4.60;;;2.20;;
26588;SDS011;14235;48.532;8.722;2022-09-09T07:06:16;3.33;;;2.13;;
26588;SDS011;14235;48.532;8.722;2022-09-09T07:08:52;6.10;;;2.30;;
26588;SDS011;14235;48.532;8.722;2022-09-09T07:11:24;2.45;;;2.20;;
26588;SDS011;14235;48.532;8.722;2022-09-09T07:13:55;2.28;;;2.08;;
26588;SDS011;14235;48.532;8.722;2022-09-09T07:16:22;2.55;;;2.33;;
26588;SDS011;14235;48.532;8.722;2022-09-09T07:18:52;2.25;;;2.05;;
26588;SDS011;14235;48.532;8.722;2022-09-09T07:21:22;3.15;;;2.20;;
26588;SDS011;14235;48.532;8.722;2022-09-09T07:23:49;2.28;;;2.00;;
26588;SDS011;14235;48.532;8.722;2022-09-09T07:26:18;2.67;;;2.10;;
26588;SDS011;14235;48.532;8.722;2022-09-09T07:28:45;3.50;;;2.15;;
26588;SDS011;14235;48.532;8.722;2022-09-09T07:31:19;3.10;;;1.80;;
26588;SDS011;14235;48.532;8.722;2022-09-09T07:33:46;5.80;;;2.25;;
26588;SDS011;14235;48.532;8.722;2022-09-09T07:36:17;3.25;;;1.95;;
26588;SDS011;14235;48.532;8.722;2022-09-09T07:38:47;2.30;;;2.10;;
26588;SDS011;14235;48.532;8.722;2022-09-09T07:41:17;4.32;;;1.95;;
26588;SDS011;14235;48.532;8.722;2022-09-09T07:43:45;3.45;;;1.83;;
26588;SDS011;14235;48.532;8.722;2022-09-09T07:46:14;2.38;;;2.13;;
26588;SDS011;14235;48.532;8.722;2022-09-09T07:48:44;3.45;;;2.28;;
26588;SDS011;14235;48.532;8.722;2022-09-09T07:51:11;3.13;;;1.90;;
26588;SDS011;14235;48.532;8.722;2022-09-09T07:53:42;3.10;;;1.67;;
26588;SDS011;14235;48.532;8.722;2022-09-09T07:56:09;3.33;;;2.00;;
26588;SDS011;14235;48.532;8.722;2022-09-09T07:58:37;4.25;;;1.70;;
26588;SDS011;14235;48.532;8.722;2022-09-09T08:01:10;1.90;;;1.60;;
26588;SDS011;14235;48.532;8.722;2022-09-09T08:03:38;3.22;;;1.70;;
26588;SDS011;14235;48.532;8.722;2022-09-09T08:06:05;4.20;;;1.67;;
26588;SDS011;14235;48.532;8.722;2022-09-09T08:08:33;1.73;;;1.45;;
26588;SDS011;14235;48.532;8.722;2022-09-09T08:11:04;5.80;;;1.50;;
26588;SDS011;14235;48.532;8.722;2022-09-09T08:13:32;5.40;;;1.90;;
26588;SDS011;14235;48.532;8.722;2022-09-09T08:16:09;5.80;;;1.88;;
26588;SDS011;14235;48.532;8.722;2022-09-09T08:18:39;3.38;;;2.03;;
26588;SDS011;14235;48.532;8.722;2022-09-09T08:21:12;6.47;;;1.60;;
26588;SDS011;14235;48.532;8.722;2022-09-09T08:23:40;3.88;;;1.58;;
26588;SDS011;14235;48.532;8.722;2022-09-09T08:26:11;6.32;;;1.75;;
26588;SDS011;14235;48.532;8.722;2022-09-09T08:28:38;3.78;;;1.45;;
26588;SDS011;14235;48.532;8.722;2022-09-09T08:31:09;3.00;;;1.58;;
26588;SDS011;14235;48.532;8.722;2022-09-09T08:33:36;3.45;;;1.55;;
26588;SDS011;14235;48.532;8.722;2022-09-09T08:36:04;5.00;;;1.90;;
26588;SDS011;14235;48.532;8.722;2022-09-09T08:38:31;5.32;;;1.45;;
26588;SDS011;14235;48.532;8.722;2022-09-09T08:41:01;5.18;;;1.60;;
26588;SDS011;14235;48.532;8.722;2022-09-09T08:43:35;4.85;;;2.10;;
26588;SDS011;14235;48.532;8.722;2022-09-09T08:51:17;5.60;;;1.83;;
26588;SDS011;14235;48.532;8.722;2022-09-09T08:53:44;4.68;;;2.05;;
26588;SDS011;14235;48.532;8.722;2022-09-09T08:56:16;6.35;;;2.20;;
26588;SDS011;14235;48.532;8.722;2022-09-09T08:58:50;4.45;;;2.08;;
26588;SDS011;14235;48.532;8.722;2022-09-09T09:04:12;6.25;;;2.10;;
26588;SDS011;14235;48.532;8.722;2022-09-09T09:07:08;5.07;;;2.53;;
26588;SDS011;14235;48.532;8.722;2022-09-09T09:12:47;3.50;;;1.88;;
26588;SDS011;14235;48.532;8.722;2022-09-09T09:15:16;5.05;;;1.88;;
26588;SDS011;14235;48.532;8.722;2022-09-09T09:17:46;6.25;;;2.05;;
26588;SDS011;14235;48.532;8.722;2022-09-09T09:20:14;6.03;;;2.28;;
26588;SDS011;14235;48.532;8.722;2022-09-09T09:22:47;5.00;;;1.75;;
26588;SDS011;14235;48.532;8.722;2022-09-09T09:30:29;3.63;;;2.20;;
26588;SDS011;14235;48.532;8.722;2022-09-09T09:33:06;4.95;;;1.65;;
26588;SDS011;14235;48.532;8.722;2022-09-09T09:35:41;5.22;;;2.63;;
26588;SDS011;14235;48.532;8.722;2022-09-09T09:38:16;1.92;;;1.63;;
26588;SDS011;14235;48.532;8.722;2022-09-09T09:40:51;4.78;;;2.20;;
26588;SDS011;14235;48.532;8.722;2022-09-09T09:45:53;3.63;;;1.55;;
26588;SDS011;14235;48.532;8.722;2022-09-09T09:48:18;2.72;;;1.88;;
26588;SDS011;14235;48.532;8.722;2022-09-09T09:53:20;6.53;;;1.83;;
26588;SDS011;14235;48.532;8.722;2022-09-09T09:55:48;3.17;;;1.70;;
26588;SDS011;14235;48.532;8.722;2022-09-09T09:58:18;4.00;;;1.60;;
26588;SDS011;14235;48.532;8.722;2022-09-09T10:00:48;3.95;;;1.60;;
26588;SDS011;14235;48.532;8.722;2022-09-09T10:03:28;4.03;;;1.80;;
26588;SDS011;14235;48.532;8.722;2022-09-09T10:06:04;4.07;;;1.60;;
26588;SDS011;14235;48.532;8.722;2022-09-09T10:08:33;4.28;;;1.83;;
26588;SDS011;14235;48.532;8.722;2022-09-09T10:11:02;5.72;;;1.60;;
26588;SDS011;14235;48.532;8.722;2022-09-09T10:13:47;2.92;;;1.58;;
26588;SDS011;14235;48.532;8.722;2022-09-09T10:18:58;2.53;;;1.05;;
26588;SDS011;14235;48.532;8.722;2022-09-09T10:21:32;2.92;;;1.23;;
26588;SDS011;14235;48.532;8.722;2022-09-09T10:27:22;2.47;;;1.27;;
26588;SDS011;14235;48.532;8.722;2022-09-09T10:32:46;3.17;;;1.20;;
26588;SDS011;14235;48.532;8.722;2022-09-09T10:54:30;1.65;;;1.00;;
26588;SDS011;14235;48.532;8.722;2022-09-09T10:57:17;2.30;;;0.90;;
26588;SDS011;14235;48.532;8.722;2022-09-09T10:59:57;1.10;;;0.60;;
26588;SDS011;14235;48.532;8.722;2022-09-09T11:02:30;1.40;;;0.77;;
26588;SDS011;14235;48.532;8.722;2022-09-09T11:04:59;2.38;;;0.90;;
26588;SDS011;14235;48.532;8.722;2022-09-09T11:10:58;1.02;;;0.90;;
26588;SDS011;14235;48.532;8.722;2022-09-09T11:21:40;1.52;;;0.80;;
26588;SDS011;14235;48.532;8.722;2022-09-09T11:24:12;2.33;;;2.17;;
26588;SDS011;14235;48.532;8.722;2022-09-09T11:26:52;1.92;;;1.00;;
26588;SDS011;14235;48.532;8.722;2022-09-09T11:34:50;2.13;;;1.23;;
26588;SDS011;14235;48.532;8.722;2022-09-09T11:40:27;1.90;;;1.13;;
26588;SDS011;14235;48.532;8.722;2022-09-09T11:43:29;1.42;;;1.15;;
26588;SDS011;14235;48.532;8.722;2022-09-09T11:45:56;2.28;;;0.93;;
26588;SDS011;14235;48.532;8.722;2022-09-09T11:48:32;4.32;;;1.00;;
26588;SDS011;14235;48.532;8.722;2022-09-09T11:51:06;1.05;;;0.73;;
26588;SDS011;14235;48.532;8.722;2022-09-09T11:53:57;2.58;;;1.25;;
26588;SDS011;14235;48.532;8.722;2022-09-09T11:56:27;5.78;;;0.98;;
26588;SDS011;14235;48.532;8.722;2022-09-09T12:01:40;5.80;;;1.00;;
26588;SDS011;14235;48.532;8.722;2022-09-09T12:12:35;3.70;;;0.90;;
26588;SDS011;14235;48.532;8.722;2022-09-09T12:23:37;3.10;;;1.00;;
26588;SDS011;14235;48.532;8.722;2022-09-09T12:28:40;3.17;;;1.10;;
26588;SDS011;14235;48.532;8.722;2022-09-09T12:31:14;1.35;;;0.70;;
26588;SDS011;14235;48.532;8.722;2022-09-09T12:34:16;2.28;;;0.82;;
26588;SDS011;14235;48.532;8.722;2022-09-09T12:36:42;2.58;;;1.08;;
26588;SDS011;14235;48.532;8.722;2022-09-09T12:39:18;1.35;;;0.80;;
26588;SDS011;14235;48.532;8.722;2022-09-09T12:41:52;1.17;;;0.80;;
26588;SDS011;14235;48.532;8.722;2022-09-09T12:44:22;2.10;;;0.85;;
26588;SDS011;14235;48.532;8.722;2022-09-09T12:46:49;2.90;;;0.82;;
26588;SDS011;14235;48.532;8.722;2022-09-09T12:49:35;1.15;;;0.60;;
26588;SDS011;14235;48.532;8.722;2022-09-09T12:52:06;1.42;;;0.80;;
26588;SDS011;14235;48.532;8.722;2022-09-09T12:54:49;1.80;;;0.70;;
26588;SDS011;14235;48.532;8.722;2022-09-09T12:57:16;2.65;;;0.90;;
26588;SDS011;14235;48.532;8.722;2022-09-09T12:59:43;1.02;;;0.70;;
26588;SDS011;14235;48.532;8.722;2022-09-09T13:02:17;2.13;;;0.82;;
26588;SDS011;14235;48.532;8.722;2022-09-09T13:04:48;1.17;;;0.52;;
26588;SDS011;14235;48.532;8.722;2022-09-09T13:07:16;2.88;;;1.00;;
26588;SDS011;14235;48.532;8.722;2022-09-09T13:09:43;1.33;;;0.80;;
26588;SDS011;14235;48.532;8.722;2022-09-09T13:12:13;1.25;;;0.82;;
26588;SDS011;14235;48.532;8.722;2022-09-09T13:14:48;1.30;;;0.65;;
26588;SDS011;14235;48.532;8.722;2022-09-09T13:17:18;2.05;;;0.90;;
26588;SDS011;14235;48.532;8.722;2022-09-09T13:19:54;1.98;;;0.80;;
26588;SDS011;14235;48.532;8.722;2022-09-09T13:22:34;1.55;;;1.08;;
26588;SDS011;14235;48.532;8.722;2022-09-09T13:25:03;1.10;;;0.70;;
26588;SDS011;14235;48.532;8.722;2022-09-09T13:27:36;1.65;;;0.88;;
26588;SDS011;14235;48.532;8.722;2022-09-09T13:30:20;1.95;;;1.15;;
26588;SDS011;14235;48.532;8.722;2022-09-09T13:35:31;0.88;;;0.60;;
26588;SDS011;14235;48.532;8.722;2022-09-09T13:37:57;2.90;;;0.70;;
26588;SDS011;14235;48.532;8.722;2022-09-09T13:40:24;1.20;;;0.63;;
26588;SDS011;14235;48.532;8.722;2022-09-09T13:42:56;2.83;;;0.80;;
26588;SDS011;14235;48.532;8.722;2022-09-09T13:45:25;1.38;;;0.45;;
26588;SDS011;14235;48.532;8.722;2022-09-09T13:47:51;1.13;;;0.35;;
26588;SDS011;14235;48.532;8.722;2022-09-09T13:52:47;2.85;;;0.73;;
26588;SDS011;14235;48.532;8.722;2022-09-09T13:55:16;1.05;;;0.50;;
26588;SDS011;14235;48.532;8.722;2022-09-09T13:57:52;0.50;;;0.50;;
26588;SDS011;14235;48.532;8.722;2022-09-09T14:00:22;1.77;;;0.80;;
26588;SDS011;14235;48.532;8.722;2022-09-09T14:02:49;1.08;;;0.70;;
26588;SDS011;14235;48.532;8.722;2022-09-09T14:05:16;2.35;;;0.80;;
26588;SDS011;14235;48.532;8.722;2022-09-09T14:07:42;2.45;;;0.73;;
26588;SDS011;14235;48.532;8.722;2022-09-09T14:10:09;2.08;;;0.85;;
26588;SDS011;14235;48.532;8.722;2022-09-09T14:12:36;1.80;;;0.60;;
26588;SDS011;14235;48.532;8.722;2022-09-09T14:15:03;0.55;;;0.45;;
26588;SDS011;14235;48.532;8.722;2022-09-09T14:17:29;1.65;;;1.08;;
26588;SDS011;14235;48.532;8.722;2022-09-09T14:19:56;2.35;;;1.00;;
26588;SDS011;14235;48.532;8.722;2022-09-09T14:22:22;3.75;;;0.70;;
26588;SDS011;14235;48.532;8.722;2022-09-09T14:24:48;2.72;;;1.08;;
26588;SDS011;14235;48.532;8.722;2022-09-09T14:27:14;1.13;;;0.70;;
26588;SDS011;14235;48.532;8.722;2022-09-09T14:29:40;1.83;;;0.80;;
26588;SDS011;14235;48.532;8.722;2022-09-09T14:32:08;1.40;;;0.80;;
26588;SDS011;14235;48.532;8.722;2022-09-09T14:34:34;3.47;;;0.90;;
26588;SDS011;14235;48.532;8.722;2022-09-09T14:37:00;0.95;;;0.80;;
26588;SDS011;14235;48.532;8.722;2022-09-09T14:39:26;3.70;;;1.00;;
26588;SDS011;14235;48.532;8.722;2022-09-09T14:41:52;0.70;;;0.70;;
26588;SDS011;14235;48.532;8.722;2022-09-09T14:44:18;2.30;;;0.65;;
26588;SDS011;14235;48.532;8.722;2022-09-09T14:46:44;1.08;;;0.70;;
26588;SDS011;14235;48.532;8.722;2022-09-09T14:49:10;2.67;;;1.67;;
26588;SDS011;14235;48.532;8.722;2022-09-09T14:51:37;1.73;;;0.82;;
26588;SDS011;14235;48.532;8.722;2022-09-09T14:54:03;1.83;;;0.93;;
26588;SDS011;14235;48.532;8.722;2022-09-09T14:56:30;1.40;;;0.73;;
26588;SDS011;14235;48.532;8.722;2022-09-09T14:58:59;3.15;;;1.63;;
26588;SDS011;14235;48.532;8.722;2022-09-09T15:01:28;0.82;;;0.70;;
26588;SDS011;14235;48.532;8.722;2022-09-09T15:03:56;1.05;;;0.77;;
26588;SDS011;14235;48.532;8.722;2022-09-09T15:06:28;2.00;;;0.73;;
26588;SDS011;14235;48.532;8.722;2022-09-09T15:08:56;0.77;;;0.70;;
26588;SDS011;14235;48.532;8.722;2022-09-09T15:11:28;1.23;;;0.70;;
26588;SDS011;14235;48.532;8.722;2022-09-09T15:13:55;1.80;;;0.80;;
26588;SDS011;14235;48.532;8.722;2022-09-09T15:16:24;1.85;;;0.85;;
26588;SDS011;14235;48.532;8.722;2022-09-09T15:18:52;2.03;;;0.57;;
26588;SDS011;14235;48.532;8.722;2022-09-09T15:21:21;3.30;;;0.75;;
26588;SDS011;14235;48.532;8.722;2022-09-09T15:23:48;2.90;;;1.05;;
26588;SDS011;14235;48.532;8.722;2022-09-09T15:26:14;3.45;;;0.90;;
26588;SDS011;14235;48.532;8.722;2022-09-09T15:28:42;0.95;;;0.52;;
26588;SDS011;14235;48.532;8.722;2022-09-09T15:31:10;1.83;;;0.57;;
26588;SDS011;14235;48.532;8.722;2022-09-09T15:33:37;1.88;;;0.70;;
26588;SDS011;14235;48.532;8.722;2022-09-09T15:36:22;2.08;;;0.90;;
26588;SDS011;14235;48.532;8.722;2022-09-09T15:38:49;4.10;;;0.98;;
26588;SDS011;14235;48.532;8.722;2022-09-09T15:41:16;1.42;;;0.82;;
26588;SDS011;14235;48.532;8.722;2022-09-09T15:43:47;2.95;;;1.20;;
26588;SDS011;14235;48.532;8.722;2022-09-09T15:48:46;2.05;;;0.80;;
26588;SDS011;14235;48.532;8.722;2022-09-09T15:51:13;2.08;;;0.70;;
26588;SDS011;14235;48.532;8.722;2022-09-09T15:53:40;1.65;;;0.70;;
26588;SDS011;14235;48.532;8.722;2022-09-09T15:56:06;2.40;;;0.80;;
26588;SDS011;14235;48.532;8.722;2022-09-09T15:58:32;1.50;;;0.70;;
26588;SDS011;14235;48.532;8.722;2022-09-09T16:01:03;1.58;;;0.73;;
26588;SDS011;14235;48.532;8.722;2022-09-09T16:03:37;3.28;;;0.82;;
26588;SDS011;14235;48.532;8.722;2022-09-09T16:06:04;0.70;;;0.70;;
26588;SDS011;14235;48.532;8.722;2022-09-09T16:08:33;2.30;;;0.80;;
26588;SDS011;14235;48.532;8.722;2022-09-09T16:11:05;1.90;;;0.80;;
26588;SDS011;14235;48.532;8.722;2022-09-09T16:13:34;3.17;;;0.82;;
26588;SDS011;14235;48.532;8.722;2022-09-09T16:16:04;2.10;;;0.90;;
26588;SDS011;14235;48.532;8.722;2022-09-09T16:18:37;1.30;;;0.80;;
26588;SDS011;14235;48.532;8.722;2022-09-09T16:21:07;1.08;;;0.75;;
26588;SDS011;14235;48.532;8.722;2022-09-09T16:23:33;1.95;;;0.75;;
26588;SDS011;14235;48.532;8.722;2022-09-09T16:25:58;1.70;;;0.80;;
26588;SDS011;14235;48.532;8.722;2022-09-09T16:28:24;1.95;;;0.70;;
26588;SDS011;14235;48.532;8.722;2022-09-09T16:30:50;0.73;;;0.70;;
26588;SDS011;14235;48.532;8.722;2022-09-09T16:33:16;2.00;;;0.90;;
26588;SDS011;14235;48.532;8.722;2022-09-09T16:35:42;2.80;;;0.60;;
26588;SDS011;14235;48.532;8.722;2022-09-09T16:38:09;3.25;;;1.15;;
26588;SDS011;14235;48.532;8.722;2022-09-09T16:40:35;2.33;;;0.80;;
26588;SDS011;14235;48.532;8.722;2022-09-09T16:43:01;0.98;;;0.50;;
26588;SDS011;14235;48.532;8.722;2022-09-09T16:45:28;1.58;;;0.50;;
26588;SDS011;14235;48.532;8.722;2022-09-09T16:47:54;2.22;;;0.90;;
26588;SDS011;14235;48.532;8.722;2022-09-09T16:50:19;1.30;;;0.57;;
26588;SDS011;14235;48.532;8.722;2022-09-09T16:52:45;2.83;;;0.88;;
26588;SDS011;14235;48.532;8.722;2022-09-09T16:55:10;2.47;;;0.90;;
26588;SDS011;14235;48.532;8.722;2022-09-09T16:57:36;1.60;;;0.77;;
26588;SDS011;14235;48.532;8.722;2022-09-09T17:00:03;2.55;;;0.82;;
26588;SDS011;14235;48.532;8.722;2022-09-09T17:02:30;1.08;;;0.60;;
26588;SDS011;14235;48.532;8.722;2022-09-09T17:04:56;2.75;;;0.63;;
26588;SDS011;14235;48.532;8.722;2022-09-09T17:07:21;1.77;;;0.80;;
26588;SDS011;14235;48.532;8.722;2022-09-09T17:09:47;1.65;;;1.00;;
26588;SDS011;14235;48.532;8.722;2022-09-09T17:12:14;2.17;;;0.77;;
26588;SDS011;14235;48.532;8.722;2022-09-09T17:14:41;1.23;;;0.80;;
26588;SDS011;14235;48.532;8.722;2022-09-09T17:17:07;5.15;;;4.28;;